Terminal Aerodrome Forecast
Issued by NWS Chicago, IL

Home | Current Version | Previous Version | Text Only | Print | Product List | Glossary Off
Versions: 1 2 3 4 5 6 7 8 9 10 11 12 13 14 15 16 17 18 19 20 21 22 23 24 25 26 27 28

000
FTUS43 KLOT 202105 AAA
TAFRFD
TAF AMD
KRFD 202105Z 2021/2118 20006KT P6SM SCT250
     FM202300 18004KT P6SM OVC012
     FM210300 VRB03KT 4SM BR OVC008
     FM210600 VRB03KT 2SM BR OVC006
     FM211000 VRB03KT 1SM -DZ BR OVC005
      TEMPO 2114/2118 1/2SM -DZ FG OVC003=

USA.gov is the U.S. government's official web portal to all federal, state and local government web resources and services.